Time;durP1;ratioP1;P1;durP2;ratioP2;P2;SDS_P1;SDS_P2;PMS_P1;PMS_P2;Temp;Humidity;BMP_temperature;BMP_pressure;BME280_temperature;BME280_humidity;BME280_pressure;Samples;Min_cycle;Max_cycle;Signal;HPM_P1;HPM_P2
2022/08/11 00:00:11;;;;;;;3.70;2.10;;;25.10;52.20;;;;;;221534;1262;24271;-59
2022/08/11 00:05:54;;;;;;;3.10;2.10;;;25.10;52.20;;;;;;221538;1262;24745;-59
2022/08/11 00:11:06;;;;;;;3.20;2.50;;;25.10;52.20;;;;;;221763;1261;24421;-59
2022/08/11 00:16:26;;;;;;;3.70;2.40;;;25.10;52.20;;;;;;221265;1262;22533;-60
2022/08/11 00:21:29;;;;;;;3.10;2.20;;;25.10;52.20;;;;;;221496;1264;22661;-60
2022/08/11 00:26:54;;;;;;;3.10;2.30;;;25.10;52.20;;;;;;221273;1262;22709;-60
2022/08/11 00:32:01;;;;;;;3.20;2.20;;;25.10;52.20;;;;;;220864;1265;22550;-62
2022/08/11 00:37:15;;;;;;;2.70;2.10;;;25.10;52.30;;;;;;221514;1262;22528;-60
2022/08/11 00:42:52;;;;;;;2.90;2.00;;;25.10;52.30;;;;;;221481;1262;24474;-61
2022/08/11 00:48:27;;;;;;;5.40;2.00;;;25.10;52.30;;;;;;221234;1262;22688;-61
2022/08/11 00:54:05;;;;;;;3.10;2.20;;;25.10;52.30;;;;;;221478;1262;22528;-60
2022/08/11 00:59:37;;;;;;;3.70;2.10;;;25.00;52.80;;;;;;221275;1262;22525;-60
2022/08/11 01:04:58;;;;;;;3.10;2.20;;;25.00;52.20;;;;;;221251;1262;22666;-60
2022/08/11 01:10:26;;;;;;;3.20;2.20;;;25.00;52.20;;;;;;221336;1265;22628;-59
2022/08/11 01:15:43;;;;;;;3.50;2.20;;;25.00;52.30;;;;;;221190;1262;22557;-61
2022/08/11 01:21:16;;;;;;;3.50;2.30;;;25.00;52.30;;;;;;221393;1262;22537;-59
2022/08/11 01:26:42;;;;;;;3.50;2.40;;;25.00;52.40;;;;;;221373;1262;24201;-60
2022/08/11 01:31:56;;;;;;;2.70;1.90;;;24.90;52.30;;;;;;221349;1262;22543;-59
2022/08/11 01:37:30;;;;;;;3.10;2.10;;;24.90;52.40;;;;;;221425;1262;25241;-60
2022/08/11 01:48:58;;;;;;;4.00;2.20;;;24.90;52.40;;;;;;221267;1262;22554;-61
2022/08/11 01:54:11;;;;;;;4.50;2.30;;;24.90;52.40;;;;;;221343;1265;25235;-59
2022/08/11 01:59:23;;;;;;;2.70;2.10;;;24.90;52.40;;;;;;221315;1265;23149;-59
2022/08/11 02:04:34;;;;;;;2.90;2.00;;;24.90;52.50;;;;;;221260;1262;22671;-60
2022/08/11 02:16:22;;;;;;;3.60;2.10;;;24.80;52.50;;;;;;221185;1265;22547;-60
2022/08/11 02:27:07;;;;;;;2.90;2.30;;;24.80;52.50;;;;;;221402;1262;22615;-63
2022/08/11 02:38:12;;;;;;;3.10;2.30;;;24.80;52.50;;;;;;221270;1262;22528;-62
2022/08/11 02:43:48;;;;;;;4.70;2.30;;;24.70;52.40;;;;;;220985;1262;26612;-61
2022/08/11 02:54:39;;;;;;;3.40;2.10;;;24.70;52.80;;;;;;221315;1262;24417;-60
2022/08/11 03:00:18;;;;;;;3.30;2.00;;;24.80;52.50;;;;;;221464;1261;22545;-60
2022/08/11 03:05:47;;;;;;;3.60;2.30;;;24.70;52.50;;;;;;221491;1262;24405;-60
2022/08/11 03:16:59;;;;;;;3.00;2.10;;;24.70;52.50;;;;;;221213;1265;25366;-58
2022/08/11 03:22:16;;;;;;;3.90;2.10;;;24.70;52.50;;;;;;220991;1265;22534;-60
2022/08/11 03:27:38;;;;;;;3.70;2.30;;;24.70;52.50;;;;;;221032;1265;22598;-60
2022/08/11 03:38:26;;;;;;;2.60;2.10;;;24.60;52.40;;;;;;220822;1265;23031;-59
2022/08/11 03:43:50;;;;;;;3.50;1.80;;;24.60;52.40;;;;;;221157;1265;22755;-61
2022/08/11 03:49:28;;;;;;;3.50;1.90;;;24.70;52.40;;;;;;221420;1265;22551;-62
2022/08/11 03:55:06;;;;;;;2.90;1.90;;;24.60;52.30;;;;;;221499;1262;25411;-61
2022/08/11 04:00:18;;;;;;;2.60;1.90;;;24.60;52.70;;;;;;221221;1265;22550;-60
2022/08/11 04:05:49;;;;;;;4.80;2.10;;;24.50;52.30;;;;;;221150;1265;25360;-60
2022/08/11 04:11:30;;;;;;;3.70;2.10;;;24.50;52.30;;;;;;221027;1265;24203;-60
2022/08/11 04:16:45;;;;;;;8.00;2.30;;;24.50;52.30;;;;;;221369;1262;25412;-59
2022/08/11 04:21:50;;;;;;;2.80;2.00;;;24.50;52.60;;;;;;221149;1265;22599;-64
2022/08/11 04:27:12;;;;;;;2.80;1.80;;;24.50;52.30;;;;;;221040;1265;25378;-61
2022/08/11 04:32:53;;;;;;;3.00;1.90;;;24.50;52.60;;;;;;221003;1265;22737;-60
2022/08/11 04:38:01;;;;;;;2.70;1.90;;;24.50;52.30;;;;;;221210;1265;22792;-60
2022/08/11 04:43:36;;;;;;;2.80;2.10;;;24.50;52.60;;;;;;221408;1262;24075;-60
2022/08/11 05:06:13;;;;;;;2.80;2.10;;;24.50;52.20;;;;;;221086;1265;25486;-61
2022/08/11 05:11:34;;;;;;;3.10;2.10;;;24.50;52.60;;;;;;221182;1266;22522;-60
2022/08/11 06:01:06;;;;;;;2.80;2.10;;;24.50;52.40;;;;;;221492;1262;22525;-59
2022/08/11 06:06:09;;;;;;;2.70;1.90;;;24.50;52.10;;;;;;221326;1265;22571;-62
2022/08/11 06:11:12;;;;;;;5.60;2.20;;;24.50;52.00;;;;;;221462;1262;24091;-60
2022/08/11 06:16:22;;;;;;;3.70;2.00;;;24.60;52.40;;;;;;221421;1262;24305;-60
2022/08/11 06:21:26;;;;;;;4.50;1.90;;;24.60;52.10;;;;;;221564;1261;22547;-61
2022/08/11 06:26:29;;;;;;;2.70;1.80;;;24.60;52.40;;;;;;221730;1262;23077;-63
2022/08/11 06:31:33;;;;;;;5.70;2.10;;;24.60;52.10;;;;;;221475;1262;25454;-60
2022/08/11 06:36:38;;;;;;;3.90;1.90;;;24.60;52.40;;;;;;221487;1262;25280;-60
2022/08/11 06:41:52;;;;;;;6.30;2.10;;;24.70;52.10;;;;;;221440;1262;26452;-59
2022/08/11 06:47:06;;;;;;;5.20;1.90;;;24.70;52.20;;;;;;221264;1265;22564;-61
2022/08/11 06:52:16;;;;;;;3.20;2.10;;;24.70;52.20;;;;;;221448;1261;22564;-60
2022/08/11 07:03:10;;;;;;;2.80;1.70;;;24.70;52.10;;;;;;221294;1265;23054;-61
2022/08/11 07:30:13;;;;;;;3.80;1.90;;;24.80;52.20;;;;;;221128;1265;22685;-61
2022/08/11 07:35:20;;;;;;;2.60;1.70;;;24.90;52.10;;;;;;221253;1265;24411;-62
2022/08/11 07:40:24;;;;;;;3.30;1.90;;;24.90;52.30;;;;;;221326;1265;23915;-59
2022/08/11 07:56:18;;;;;;;3.50;1.70;;;24.90;53.10;;;;;;221387;1262;24216;-61
2022/08/11 08:17:56;;;;;;;4.30;1.90;;;25.00;52.70;;;;;;221267;1267;24375;-64
2022/08/11 08:23:34;;;;;;;3.10;1.90;;;25.00;52.40;;;;;;221663;1262;23879;-61
2022/08/11 08:28:37;;;;;;;2.30;1.60;;;25.10;52.40;;;;;;221620;1262;25460;-62
2022/08/11 08:33:41;;;;;;;2.30;1.80;;;25.10;52.40;;;;;;221201;1263;22835;-62
2022/08/11 08:38:52;;;;;;;2.70;1.80;;;25.10;52.30;;;;;;221389;1263;24283;-61
2022/08/11 08:44:25;;;;;;;2.60;1.80;;;25.10;52.20;;;;;;221059;1262;25307;-60
2022/08/11 08:49:49;;;;;;;4.00;1.80;;;25.10;52.20;;;;;;221206;1265;22639;-61
2022/08/11 08:54:57;;;;;;;3.30;2.00;;;25.10;52.20;;;;;;221157;1262;25623;-62
2022/08/11 09:00:01;;;;;;;3.40;2.00;;;25.20;52.10;;;;;;221707;1265;22535;-63
2022/08/11 09:05:08;;;;;;;3.20;1.90;;;25.20;52.00;;;;;;221583;1262;22566;-62
2022/08/11 09:10:16;;;;;;;2.80;1.80;;;25.20;52.00;;;;;;221222;1262;23940;-60
2022/08/11 09:15:18;;;;;;;3.20;2.20;;;25.20;52.30;;;;;;221535;1265;23043;-62
2022/08/11 09:20:24;;;;;;;3.60;1.70;;;25.30;52.00;;;;;;221586;1262;22563;-61
2022/08/11 09:30:53;;;;;;;4.50;2.00;;;25.40;52.00;;;;;;221125;1262;25412;-61
2022/08/11 09:40:27;;;;;;;3.70;1.80;;;25.40;52.30;;;;;;221434;1262;23165;-61
2022/08/11 09:41:22;;;;;;;2.30;1.70;;;25.40;51.80;;;;;;221216;1261;25277;-61
2022/08/11 09:46:28;;;;;;;3.10;1.90;;;25.40;51.70;;;;;;221264;1265;25352;-60
2022/08/11 09:51:34;;;;;;;2.20;1.70;;;25.40;52.00;;;;;;221228;1265;24557;-60
2022/08/11 10:02:03;;;;;;;2.60;1.60;;;25.50;51.70;;;;;;221200;1262;24239;-60
2022/08/11 10:07:09;;;;;;;2.90;2.00;;;25.50;51.70;;;;;;221279;1262;22603;-62
2022/08/11 10:12:36;;;;;;;3.00;1.70;;;25.60;51.80;;;;;;221566;1262;25299;-60
2022/08/11 10:18:41;;;;;;;2.70;1.70;;;25.60;51.70;;;;;;221658;1262;22602;-64
2022/08/11 10:28:34;;;;;;;2.30;1.70;;;25.60;51.50;;;;;;221050;1262;22713;-58
2022/08/11 10:34:04;;;;;;;2.60;1.60;;;25.70;51.50;;;;;;221344;1261;22600;-61
2022/08/11 10:39:16;;;;;;;3.30;1.90;;;25.70;51.90;;;;;;221241;1262;25324;-61
2022/08/11 10:44:21;;;;;;;2.40;1.70;;;25.70;52.00;;;;;;221384;1262;22553;-61
2022/08/11 10:49:26;;;;;;;4.00;2.00;;;25.70;51.60;;;;;;221486;1262;25477;-62
2022/08/11 10:59:53;;;;;;;5.30;2.40;;;25.80;51.60;;;;;;221642;1262;25410;-60
2022/08/11 11:05:02;;;;;;;4.10;2.20;;;25.80;51.70;;;;;;221377;1262;22560;-59
2022/08/11 11:10:08;;;;;;;5.00;1.80;;;25.80;51.30;;;;;;221461;1261;23946;-60
2022/08/11 11:20:40;;;;;;;3.30;2.00;;;25.90;51.50;;;;;;221226;1262;22531;-61
2022/08/11 11:26:11;;;;;;;2.60;1.60;;;25.90;51.40;;;;;;221304;1265;24373;-63
2022/08/11 11:31:45;;;;;;;2.60;1.60;;;26.00;51.40;;;;;;221378;1262;22547;-60
2022/08/11 11:36:50;;;;;;;3.20;1.80;;;26.00;51.30;;;;;;221572;1262;22593;-62
2022/08/11 11:41:59;;;;;;;2.70;1.80;;;26.00;51.30;;;;;;221353;1265;24361;-62
2022/08/11 11:47:24;;;;;;;3.40;1.90;;;25.80;52.20;;;;;;221436;1264;25247;-61
2022/08/11 11:53:05;;;;;;;2.90;1.70;;;25.70;52.10;;;;;;221020;1265;25312;-60
2022/08/11 12:04:04;;;;;;;2.50;1.40;;;25.60;53.40;;;;;;221479;1265;22657;-60
2022/08/11 12:09:17;;;;;;;2.70;1.90;;;25.60;51.70;;;;;;221195;1262;23002;-64
2022/08/11 12:14:26;;;;;;;2.60;1.60;;;25.80;51.60;;;;;;221172;1265;24229;-61
2022/08/11 12:19:29;;;;;;;2.40;1.80;;;25.80;51.50;;;;;;221289;1262;26141;-61
2022/08/11 12:30:07;;;;;;;2.40;1.60;;;25.90;51.20;;;;;;221334;1265;22576;-61
2022/08/11 12:35:17;;;;;;;3.40;1.90;;;26.00;51.00;;;;;;221288;1265;24300;-60
2022/08/11 12:46:30;;;;;;;2.40;1.80;;;26.00;51.20;;;;;;221497;1262;22547;-60
2022/08/11 12:52:00;;;;;;;2.80;1.60;;;26.00;51.00;;;;;;221301;1262;24250;-60
2022/08/11 13:08:19;;;;;;;3.20;1.90;;;26.10;51.10;;;;;;221472;1262;23937;-60
2022/08/11 13:13:22;;;;;;;3.40;1.90;;;26.20;51.50;;;;;;221294;1262;24144;-60
2022/08/11 13:18:49;;;;;;;2.50;1.90;;;26.10;51.10;;;;;;221135;1262;24740;-59
2022/08/11 13:23:55;;;;;;;2.00;1.50;;;26.20;51.10;;;;;;221552;1262;23258;-61
2022/08/11 13:29:05;;;;;;;2.50;1.80;;;26.20;51.20;;;;;;221240;1262;22543;-61
2022/08/11 13:34:17;;;;;;;2.00;1.50;;;26.20;51.20;;;;;;221536;1261;22576;-60
2022/08/11 13:39:31;;;;;;;2.30;1.70;;;26.20;51.00;;;;;;221448;1261;22557;-59
2022/08/11 13:44:37;;;;;;;2.30;1.50;;;26.20;51.10;;;;;;221193;1265;22545;-60
2022/08/11 13:49:43;;;;;;;2.90;1.80;;;26.20;51.50;;;;;;221304;1265;22543;-60
2022/08/11 13:54:49;;;;;;;3.50;2.00;;;26.20;51.20;;;;;;221240;1265;25349;-60
2022/08/11 14:00:08;;;;;;;;;;;26.30;51.70;;;;;;221028;1265;24264;-59
2022/08/11 14:05:18;;;;;;;2.80;1.80;;;26.20;51.20;;;;;;221107;1262;22562;-59
2022/08/11 14:10:27;;;;;;;4.00;1.60;;;26.30;51.30;;;;;;221327;1262;22528;-58
2022/08/11 14:15:35;;;;;;;4.10;1.90;;;26.30;51.30;;;;;;221269;1261;22577;-59
2022/08/11 14:26:25;;;;;;;9.70;2.40;;;26.40;51.60;;;;;;221373;1265;22537;-57
2022/08/11 14:31:32;;;;;;;8.80;1.90;;;26.30;51.60;;;;;;221107;1265;24384;-57
2022/08/11 14:36:38;;;;;;;5.50;1.90;;;26.40;51.80;;;;;;221142;1265;23906;-60
2022/08/11 14:47:15;;;;;;;5.30;1.70;;;26.40;52.40;;;;;;220962;1265;23836;-57
2022/08/11 14:52:28;;;;;;;5.10;1.80;;;26.40;52.10;;;;;;221045;1265;24820;-57
2022/08/11 14:57:39;;;;;;;4.80;1.90;;;26.40;51.90;;;;;;221500;1262;25584;-58
2022/08/11 15:03:11;;;;;;;6.50;2.30;;;26.40;52.20;;;;;;221101;1262;22684;-58
2022/08/11 15:08:18;;;;;;;6.50;2.10;;;26.40;51.70;;;;;;221374;1265;24645;-59
2022/08/11 15:13:20;;;;;;;11.50;2.00;;;26.30;51.60;;;;;;221322;1261;24218;-59
2022/08/11 15:18:25;;;;;;;4.70;1.70;;;26.30;51.70;;;;;;221653;1263;22546;-61
2022/08/11 15:45:48;;;;;;;4.10;1.70;;;26.40;51.50;;;;;;221163;1262;25514;-57
2022/08/11 15:50:57;;;;;;;4.10;1.90;;;26.30;51.80;;;;;;221257;1262;25348;-59
2022/08/11 15:56:01;;;;;;;4.30;2.00;;;26.30;51.80;;;;;;221462;1262;24276;-59
2022/08/11 16:06:28;;;;;;;3.20;1.70;;;26.30;51.80;;;;;;221037;1262;22833;-59
2022/08/11 16:11:33;;;;;;;3.40;1.90;;;26.30;51.50;;;;;;221341;1262;25238;-60
2022/08/11 16:16:48;;;;;;;4.20;1.50;;;26.30;51.40;;;;;;221238;1262;25380;-58
2022/08/11 16:22:08;;;;;;;3.30;1.70;;;26.30;51.60;;;;;;221238;1262;22805;-56
2022/08/11 16:27:17;;;;;;;2.40;1.60;;;26.20;51.30;;;;;;221252;1262;23924;-59
2022/08/11 16:32:27;;;;;;;8.50;1.80;;;26.20;51.40;;;;;;221502;1262;24293;-59
2022/08/11 16:48:27;;;;;;;4.60;1.50;;;26.20;51.40;;;;;;221295;1262;22681;-59
2022/08/11 16:53:43;;;;;;;4.90;2.10;;;26.20;51.30;;;;;;219979;1262;1205778;-59
2022/08/11 16:59:13;;;;;;;2.60;1.60;;;26.20;51.00;;;;;;221020;1265;25201;-59
2022/08/11 17:16:09;;;;;;;3.20;1.80;;;26.20;50.40;;;;;;221433;1262;24268;-57
2022/08/11 17:21:25;;;;;;;4.00;1.90;;;26.20;50.90;;;;;;221436;1262;24163;-59
2022/08/11 17:26:57;;;;;;;5.00;1.80;;;26.20;51.20;;;;;;221406;1262;23929;-58
2022/08/11 17:37:24;;;;;;;5.30;2.10;;;26.20;51.00;;;;;;221400;1262;22518;-56
2022/08/11 18:04:06;;;;;;;3.10;1.80;;;26.10;51.00;;;;;;221397;1262;24289;-58
